Time;durP1;ratioP1;P1;durP2;ratioP2;P2;SDS_P1;SDS_P2;PMS_P1;PMS_P2;Temp;Humidity;BMP_temperature;BMP_pressure;BME280_temperature;BME280_humidity;BME280_pressure;Samples;Min_cycle;Max_cycle;Signal;HPM_P1;HPM_P2
2021/08/08 00:01:16;;;;;;;;;;;;;;;22.59;62.22;100105.56;5055833;27;99438;-76
2021/08/08 00:03:42;;;;;;;;;;;;;;;22.94;61.31;100107.59;5056310;27;98923;-75
2021/08/08 00:06:08;;;;;;;;;;;;;;;22.64;61.91;100105.16;5056651;27;96802;-77
2021/08/08 00:08:35;;;;;;;;;;;;;;;22.75;61.77;100114.91;5056269;27;98381;-76
2021/08/08 00:11:01;;;;;;;;;;;;;;;22.64;61.91;100118.63;5056185;27;99263;-77
2021/08/08 00:13:29;;;;;;;;;;;;;;;22.39;62.26;100117.38;5055923;27;98620;-76
2021/08/08 00:15:55;;;;;;;;;;;;;;;22.57;61.93;100121.06;5056759;27;96698;-76
2021/08/08 00:18:22;;;;;;;;;;;;;;;22.62;61.67;100116.06;5056584;27;96837;-76
2021/08/08 00:20:49;;;;;;;;;;;;;;;22.73;61.38;100125.84;5055081;27;99126;-77
2021/08/08 00:23:15;;;;;;;;;;;;;;;22.40;62.89;100115.53;5054517;27;99290;-75
2021/08/08 00:25:41;;;;;;;;;;;;;;;22.82;61.17;100119.56;5056118;27;96804;-76
2021/08/08 00:28:07;;;;;;;;;;;;;;;22.70;61.14;100125.25;5055694;27;97795;-75
2021/08/08 00:30:35;;;;;;;;;;;;;;;22.65;61.35;100118.44;5055533;27;98909;-75
2021/08/08 00:33:02;;;;;;;;;;;;;;;22.72;60.99;100124.09;5056204;27;99115;-78
2021/08/08 00:35:28;;;;;;;;;;;;;;;22.60;61.01;100125.28;5057214;27;96826;-79
2021/08/08 00:37:55;;;;;;;;;;;;;;;22.54;61.08;100126.72;5057232;27;96945;-78
2021/08/08 00:40:21;;;;;;;;;;;;;;;22.29;61.94;100135.41;5046447;27;98915;-76
2021/08/08 00:42:47;;;;;;;;;;;;;;;21.78;63.48;100139.22;5039126;27;98817;-78
2021/08/08 00:45:14;;;;;;;;;;;;;;;21.72;63.67;100147.84;5056569;27;96754;-76
2021/08/08 00:47:42;;;;;;;;;;;;;;;22.03;62.88;100145.91;5056536;27;98468;-76
2021/08/08 00:50:09;;;;;;;;;;;;;;;22.02;62.30;100143.34;5055695;27;98977;-76
2021/08/08 00:52:36;;;;;;;;;;;;;;;22.35;61.75;100132.13;5055672;27;98866;-78
2021/08/08 00:55:02;;;;;;;;;;;;;;;21.87;62.57;100135.66;5056782;27;96648;-76
2021/08/08 00:57:28;;;;;;;;;;;;;;;22.38;61.18;100141.78;5059810;27;97397;-76
2021/08/08 00:59:55;;;;;;;;;;;;;;;22.49;60.69;100139.78;5059373;27;98936;-76
2021/08/08 01:02:21;;;;;;;;;;;;;;;22.72;60.28;100134.88;5060534;27;98876;-76
2021/08/08 01:04:52;;;;;;;;;;;;;;;22.57;60.36;100137.22;5062935;27;96658;-76
2021/08/08 01:07:20;;;;;;;;;;;;;;;22.73;59.86;100128.53;5059851;27;96845;-77
2021/08/08 01:09:49;;;;;;;;;;;;;;;22.50;60.54;100135.22;5057945;27;98899;-75
2021/08/08 01:12:15;;;;;;;;;;;;;;;22.12;60.98;100128.91;5058679;27;99340;-76
2021/08/08 01:14:42;;;;;;;;;;;;;;;22.54;60.15;100129.41;5057318;27;96909;-76
2021/08/08 01:17:09;;;;;;;;;;;;;;;22.47;60.28;100130.13;5048233;27;96767;-76
2021/08/08 01:19:38;;;;;;;;;;;;;;;22.64;59.91;100127.50;5057832;27;99250;-76
2021/08/08 01:22:06;;;;;;;;;;;;;;;22.62;59.74;100128.69;5058240;27;99377;-76
2021/08/08 01:24:34;;;;;;;;;;;;;;;22.77;59.21;100121.03;5060224;27;96688;-76
2021/08/08 01:27:02;;;;;;;;;;;;;;;22.60;59.70;100128.81;5039898;27;96926;-76
2021/08/08 01:29:30;;;;;;;;;;;;;;;22.69;59.62;100137.03;5048604;27;99440;-75
2021/08/08 01:31:56;;;;;;;;;;;;;;;22.66;59.27;100135.47;5065003;27;99162;-75
2021/08/08 01:34:23;;;;;;;;;;;;;;;22.66;59.31;100124.69;5066022;27;96864;-76
2021/08/08 01:36:49;;;;;;;;;;;;;;;22.60;59.56;100128.81;5069950;27;96595;-75
2021/08/08 01:39:17;;;;;;;;;;;;;;;22.57;59.78;100141.75;5069214;27;98889;-76
2021/08/08 01:41:48;;;;;;;;;;;;;;;22.51;59.82;100135.06;5071380;27;99360;-75
2021/08/08 01:44:14;;;;;;;;;;;;;;;22.43;60.05;100134.13;5064990;27;97315;-76
2021/08/08 01:46:41;;;;;;;;;;;;;;;22.47;59.80;100124.75;5059644;27;96939;-76
2021/08/08 01:49:08;;;;;;;;;;;;;;;22.51;59.61;100126.16;5058721;27;100925;-76
2021/08/08 01:51:34;;;;;;;;;;;;;;;22.44;59.80;100120.53;5058179;27;98924;-75
2021/08/08 01:54:01;;;;;;;;;;;;;;;22.38;59.85;100129.19;5059321;27;96725;-75
2021/08/08 01:56:27;;;;;;;;;;;;;;;22.46;59.82;100129.28;5058415;27;96826;-76
2021/08/08 01:58:55;;;;;;;;;;;;;;;22.22;60.45;100131.59;5058489;27;98955;-75
2021/08/08 02:01:26;;;;;;;;;;;;;;;22.29;59.94;100130.03;5057049;27;97708;-75
2021/08/08 02:03:53;;;;;;;;;;;;;;;22.43;59.92;100134.97;5057833;27;97161;-75
2021/08/08 02:06:19;;;;;;;;;;;;;;;22.45;59.66;100137.53;5057512;27;96865;-76
2021/08/08 02:08:45;;;;;;;;;;;;;;;22.42;59.61;100132.41;5058024;27;99262;-75
2021/08/08 02:11:11;;;;;;;;;;;;;;;22.42;59.63;100130.56;5057748;27;100686;-76
2021/08/08 02:13:38;;;;;;;;;;;;;;;22.33;59.91;100133.25;5058042;27;96708;-75
2021/08/08 02:16:05;;;;;;;;;;;;;;;22.29;59.78;100129.19;5058323;27;97809;-75
2021/08/08 02:18:31;;;;;;;;;;;;;;;22.25;59.89;100134.00;5053263;27;99154;-76
2021/08/08 02:20:58;;;;;;;;;;;;;;;22.12;60.16;100138.84;5049348;27;99214;-75
2021/08/08 02:23:24;;;;;;;;;;;;;;;22.22;59.89;100134.28;5058338;27;96825;-75
2021/08/08 02:25:51;;;;;;;;;;;;;;;22.23;59.87;100146.75;5049958;27;97434;-75
2021/08/08 02:28:18;;;;;;;;;;;;;;;22.29;59.56;100148.00;5037890;27;99245;-75
2021/08/08 02:30:44;;;;;;;;;;;;;;;22.07;60.11;100144.63;5037661;28;98995;-76
2021/08/08 02:33:12;;;;;;;;;;;;;;;22.17;59.55;100144.63;5037936;27;96666;-75
2021/08/08 02:35:38;;;;;;;;;;;;;;;22.04;59.85;100144.06;5043084;27;97060;-76
2021/08/08 02:38:04;;;;;;;;;;;;;;;22.23;59.44;100149.44;5057820;27;97893;-76
2021/08/08 02:40:31;;;;;;;;;;;;;;;22.10;59.70;100146.19;5057728;27;97929;-76
2021/08/08 02:42:57;;;;;;;;;;;;;;;22.00;59.71;100140.81;5058437;27;96706;-76
2021/08/08 02:45:23;;;;;;;;;;;;;;;22.12;59.74;100144.22;5057943;27;96805;-76
2021/08/08 02:47:49;;;;;;;;;;;;;;;21.94;60.09;100156.63;5057798;27;99253;-76
2021/08/08 02:50:17;;;;;;;;;;;;;;;22.07;59.95;100146.47;5058203;27;98808;-77
2021/08/08 02:52:44;;;;;;;;;;;;;;;22.09;59.52;100156.09;5067780;27;96542;-75
2021/08/08 02:55:11;;;;;;;;;;;;;;;22.17;59.43;100160.78;5058611;27;97195;-75
2021/08/08 02:57:37;;;;;;;;;;;;;;;22.31;59.13;100162.19;5058210;27;100422;-75
2021/08/08 03:00:04;;;;;;;;;;;;;;;22.37;58.72;100159.78;5058059;27;99023;-76
2021/08/08 03:02:30;;;;;;;;;;;;;;;22.09;59.83;100169.56;5058738;27;96809;-75
2021/08/08 03:04:56;;;;;;;;;;;;;;;22.18;59.48;100167.88;5058134;27;96780;-75
2021/08/08 03:07:24;;;;;;;;;;;;;;;22.27;59.27;100172.38;5058107;27;99854;-75
2021/08/08 03:09:50;;;;;;;;;;;;;;;22.35;59.07;100180.59;5057626;27;99472;-76
2021/08/08 03:12:17;;;;;;;;;;;;;;;22.40;58.61;100181.00;5058567;27;96888;-75
2021/08/08 03:14:43;;;;;;;;;;;;;;;22.22;58.91;100193.47;5058107;27;96811;-75
2021/08/08 03:17:09;;;;;;;;;;;;;;;22.05;59.08;100191.50;5056419;27;98926;-75
2021/08/08 03:19:35;;;;;;;;;;;;;;;22.28;58.79;100198.28;5056991;27;99245;-76
2021/08/08 03:22:02;;;;;;;;;;;;;;;21.94;59.29;100203.19;5057442;27;96951;-75
2021/08/08 03:24:29;;;;;;;;;;;;;;;22.17;59.11;100193.06;5057621;27;96770;-76
2021/08/08 03:26:56;;;;;;;;;;;;;;;22.07;59.41;100200.28;5056766;27;99394;-75
2021/08/08 03:29:22;;;;;;;;;;;;;;;21.98;59.79;100199.28;5057100;27;98782;-75
2021/08/08 03:31:48;;;;;;;;;;;;;;;22.23;59.14;100203.25;5057625;27;97349;-75
2021/08/08 03:34:14;;;;;;;;;;;;;;;22.12;59.31;100195.34;5057648;27;97491;-75
2021/08/08 03:36:40;;;;;;;;;;;;;;;22.27;58.57;100204.66;5056741;27;98908;-76
2021/08/08 03:39:07;;;;;;;;;;;;;;;22.24;58.67;100213.03;5057088;27;99530;-76
2021/08/08 03:41:34;;;;;;;;;;;;;;;22.40;58.34;100220.53;5057533;27;96758;-75
2021/08/08 03:44:01;;;;;;;;;;;;;;;22.42;58.38;100224.78;5057517;27;96761;-76
2021/08/08 03:46:27;;;;;;;;;;;;;;;22.36;58.15;100222.66;5056529;27;98967;-75
2021/08/08 03:48:53;;;;;;;;;;;;;;;22.44;58.20;100224.66;5057271;27;99250;-75
2021/08/08 03:51:19;;;;;;;;;;;;;;;22.33;58.50;100219.38;5057219;27;98509;-75
2021/08/08 03:53:45;;;;;;;;;;;;;;;22.08;59.10;100242.34;5057702;27;96882;-76
2021/08/08 03:56:12;;;;;;;;;;;;;;;22.21;58.70;100242.91;5055897;27;98846;-76
2021/08/08 03:58:39;;;;;;;;;;;;;;;22.31;58.57;100251.00;5056594;27;99303;-76
2021/08/08 04:01:06;;;;;;;;;;;;;;;22.17;58.50;100253.13;5057346;27;96697;-76
2021/08/08 04:03:34;;;;;;;;;;;;;;;22.09;58.85;100254.81;5057446;27;96786;-76
2021/08/08 04:06:00;;;;;;;;;;;;;;;22.21;58.55;100259.06;5056140;27;99365;-76
2021/08/08 04:08:26;;;;;;;;;;;;;;;22.12;58.52;100258.03;5056691;27;98029;-77
2021/08/08 04:10:53;;;;;;;;;;;;;;;22.26;58.71;100264.84;5057254;27;96678;-76
2021/08/08 04:13:19;;;;;;;;;;;;;;;22.07;58.87;100265.69;5057777;27;96849;-76
2021/08/08 04:15:47;;;;;;;;;;;;;;;22.03;58.70;100268.81;5057337;27;98809;-75
2021/08/08 04:18:13;;;;;;;;;;;;;;;22.18;58.37;100270.13;5058172;27;98790;-75
2021/08/08 04:20:39;;;;;;;;;;;;;;;22.17;58.47;100261.19;5078878;27;96632;-76
2021/08/08 04:23:07;;;;;;;;;;;;;;;22.20;57.99;100270.81;5078000;27;96825;-76
2021/08/08 04:25:33;;;;;;;;;;;;;;;22.16;58.29;100281.00;5067762;27;99128;-75
2021/08/08 04:27:59;;;;;;;;;;;;;;;22.42;57.78;100277.78;5057659;27;98985;-75
2021/08/08 04:30:27;;;;;;;;;;;;;;;22.34;57.80;100286.53;5059888;27;97800;-76
2021/08/08 04:32:54;;;;;;;;;;;;;;;22.50;57.32;100294.94;5060586;27;96731;-75
2021/08/08 04:35:21;;;;;;;;;;;;;;;22.39;57.32;100296.88;5059297;27;97564;-76
2021/08/08 04:37:47;;;;;;;;;;;;;;;22.62;56.63;100296.47;5060133;27;99161;-75
2021/08/08 04:40:13;;;;;;;;;;;;;;;22.78;56.15;100295.91;5059722;27;96832;-75
2021/08/08 04:42:40;;;;;;;;;;;;;;;22.87;55.91;100299.59;5060310;27;96778;-75
2021/08/08 04:45:07;;;;;;;;;;;;;;;22.48;56.78;100296.91;5059575;27;97714;-76
2021/08/08 04:47:33;;;;;;;;;;;;;;;22.43;57.07;100306.41;5058753;27;99106;-75
2021/08/08 04:50:01;;;;;;;;;;;;;;;22.43;57.04;100299.19;5059299;27;96820;-75
2021/08/08 04:52:33;;;;;;;;;;;;;;;22.49;56.94;100304.00;5058911;27;96865;-77
2021/08/08 04:55:00;;;;;;;;;;;;;;;22.52;56.45;100305.53;5057802;27;98953;-74
2021/08/08 04:57:26;;;;;;;;;;;;;;;22.41;56.52;100303.84;5061132;27;99269;-75
2021/08/08 04:59:52;;;;;;;;;;;;;;;22.51;56.33;100309.25;5066079;27;96778;-74
2021/08/08 05:02:20;;;;;;;;;;;;;;;22.42;56.24;100300.16;5068918;27;96839;-75
2021/08/08 05:04:46;;;;;;;;;;;;;;;22.43;56.32;100307.25;5066216;27;99002;-76
2021/08/08 05:07:14;;;;;;;;;;;;;;;22.71;55.26;100310.91;5065894;27;99141;-76
2021/08/08 05:09:40;;;;;;;;;;;;;;;22.75;54.56;100307.00;5066051;27;96663;-76
2021/08/08 05:12:07;;;;;;;;;;;;;;;22.91;54.51;100307.25;5059597;27;97176;-75
2021/08/08 05:14:34;;;;;;;;;;;;;;;22.87;54.90;100307.69;5056009;27;99246;-77
2021/08/08 05:17:01;;;;;;;;;;;;;;;22.98;54.16;100315.59;5055295;27;99169;-75
2021/08/08 05:19:27;;;;;;;;;;;;;;;22.98;53.92;100310.22;5056496;27;96851;-75
2021/08/08 05:21:54;;;;;;;;;;;;;;;23.18;52.97;100311.88;5054638;27;96988;-77
2021/08/08 05:24:21;;;;;;;;;;;;;;;22.99;53.61;100317.31;5055464;27;99333;-76
2021/08/08 05:26:48;;;;;;;;;;;;;;;23.25;52.68;100321.09;5056110;27;98738;-77
2021/08/08 05:29:14;;;;;;;;;;;;;;;23.23;52.81;100324.94;5056982;27;96942;-75
2021/08/08 05:31:40;;;;;;;;;;;;;;;23.26;52.64;100321.94;5056847;27;96795;-76
2021/08/08 05:34:07;;;;;;;;;;;;;;;23.49;51.75;100338.66;5056648;27;98835;-76
2021/08/08 05:36:33;;;;;;;;;;;;;;;23.54;51.53;100339.91;5056131;27;98892;-76
2021/08/08 05:39:00;;;;;;;;;;;;;;;25.51;46.69;100343.50;5056840;27;96669;-76
2021/08/08 05:41:28;;;;;;;;;;;;;;;26.29;44.08;100348.81;5055870;27;96694;-76
2021/08/08 05:43:54;;;;;;;;;;;;;;;25.45;45.48;100360.38;5056017;27;99309;-76
2021/08/08 05:46:20;;;;;;;;;;;;;;;24.54;47.74;100364.28;5054789;27;99162;-77
2021/08/08 05:48:46;;;;;;;;;;;;;;;24.30;48.63;100377.50;5056047;27;96843;-76
2021/08/08 05:51:13;;;;;;;;;;;;;;;23.77;49.89;100373.59;5056365;27;96952;-76
2021/08/08 05:53:39;;;;;;;;;;;;;;;23.71;50.15;100379.59;5055340;27;99157;-76
2021/08/08 05:56:05;;;;;;;;;;;;;;;23.52;50.68;100382.34;5055496;27;98840;-76
2021/08/08 05:58:33;;;;;;;;;;;;;;;23.88;50.46;100382.53;5056181;27;97133;-77
2021/08/08 06:00:59;;;;;;;;;;;;;;;24.01;49.42;100383.03;5056175;27;96860;-76
2021/08/08 06:03:25;;;;;;;;;;;;;;;24.05;49.71;100385.28;5055976;27;97832;-76
2021/08/08 06:05:51;;;;;;;;;;;;;;;24.01;49.49;100386.59;5036967;27;98804;-76
2021/08/08 06:08:18;;;;;;;;;;;;;;;24.20;48.79;100378.44;5036134;27;97024;-76
2021/08/08 06:10:44;;;;;;;;;;;;;;;24.41;48.68;100390.81;5051931;27;96866;-76
2021/08/08 06:13:12;;;;;;;;;;;;;;;24.48;48.29;100395.44;5055433;27;99368;-77
2021/08/08 06:15:39;;;;;;;;;;;;;;;24.25;48.31;100390.63;5044802;27;98843;-75
2021/08/08 06:18:05;;;;;;;;;;;;;;;24.11;48.55;100379.28;5035955;27;96933;-77
2021/08/08 06:20:31;;;;;;;;;;;;;;;24.50;48.00;100388.03;5035691;27;97156;-76
2021/08/08 06:22:58;;;;;;;;;;;;;;;24.46;48.31;100391.22;5050908;27;99104;-76
2021/08/08 06:25:24;;;;;;;;;;;;;;;24.31;48.35;100388.16;5055127;27;98828;-76
2021/08/08 06:27:51;;;;;;;;;;;;;;;24.65;47.80;100377.56;5056194;27;97211;-76
2021/08/08 06:30:17;;;;;;;;;;;;;;;24.71;47.68;100382.34;5056414;27;96797;-76
2021/08/08 06:32:44;;;;;;;;;;;;;;;24.58;47.82;100382.72;5055289;27;98907;-76
2021/08/08 06:35:11;;;;;;;;;;;;;;;24.38;47.78;100391.09;5055055;27;98876;-76
2021/08/08 06:37:40;;;;;;;;;;;;;;;24.70;47.19;100383.34;5055153;27;96775;-76
2021/08/08 06:40:07;;;;;;;;;;;;;;;24.97;47.29;100386.00;5055564;27;96856;-76
2021/08/08 06:42:33;;;;;;;;;;;;;;;25.94;45.12;100385.88;5055160;27;98329;-76
2021/08/08 06:45:00;;;;;;;;;;;;;;;26.76;43.31;100389.72;5055028;27;97847;-77
2021/08/08 06:47:26;;;;;;;;;;;;;;;26.33;43.05;100398.91;5055575;27;96731;-76
2021/08/08 06:49:53;;;;;;;;;;;;;;;26.13;44.10;100403.72;5056547;27;97061;-76
2021/08/08 06:52:19;;;;;;;;;;;;;;;25.84;43.97;100395.97;5054998;27;99190;-76
2021/08/08 06:54:46;;;;;;;;;;;;;;;25.59;44.65;100386.03;5055227;27;98954;-76
2021/08/08 06:57:12;;;;;;;;;;;;;;;25.34;45.47;100396.63;5054908;27;96933;-76
2021/08/08 06:59:39;;;;;;;;;;;;;;;25.39;44.77;100388.06;5055425;27;97044;-76
2021/08/08 07:02:05;;;;;;;;;;;;;;;25.29;45.24;100387.28;5054597;27;98906;-76
2021/08/08 07:04:31;;;;;;;;;;;;;;;25.85;43.99;100394.13;5054711;27;98957;-76
2021/08/08 07:06:59;;;;;;;;;;;;;;;25.99;44.47;100393.53;5055413;27;96858;-76
2021/08/08 07:09:25;;;;;;;;;;;;;;;25.96;43.88;100405.50;5055355;27;96840;-75
2021/08/08 07:11:51;;;;;;;;;;;;;;;25.65;44.40;100399.75;5055159;27;99681;-75
2021/08/08 07:14:17;;;;;;;;;;;;;;;25.57;43.76;100399.69;5055055;27;98777;-76
2021/08/08 07:16:44;;;;;;;;;;;;;;;25.65;44.21;100409.72;5054856;27;96972;-76
2021/08/08 07:19:10;;;;;;;;;;;;;;;26.44;42.58;100404.91;5055902;27;96822;-76
2021/08/08 07:21:36;;;;;;;;;;;;;;;26.86;41.26;100412.09;5055071;27;98899;-77
2021/08/08 07:24:04;;;;;;;;;;;;;;;27.03;40.50;100411.16;5055083;27;99269;-77
2021/08/08 07:26:30;;;;;;;;;;;;;;;27.16;40.10;100414.22;5054357;27;96689;-76
2021/08/08 07:28:57;;;;;;;;;;;;;;;27.52;38.98;100424.72;5054876;27;96814;-77
2021/08/08 07:31:23;;;;;;;;;;;;;;;27.76;38.37;100416.56;5054584;27;98946;-77
2021/08/08 07:33:49;;;;;;;;;;;;;;;27.58;38.30;100427.59;5054731;27;98983;-77
2021/08/08 07:36:16;;;;;;;;;;;;;;;27.44;38.64;100427.44;5054361;27;96802;-77
2021/08/08 07:38:42;;;;;;;;;;;;;;;26.79;39.18;100432.75;5054882;27;97048;-77
2021/08/08 07:41:11;;;;;;;;;;;;;;;27.00;38.96;100435.88;5054586;27;99170;-77
2021/08/08 07:43:37;;;;;;;;;;;;;;;26.91;39.66;100431.47;5054811;27;98907;-77
2021/08/08 07:46:03;;;;;;;;;;;;;;;27.13;39.08;100430.81;5054371;27;96707;-76
2021/08/08 07:48:30;;;;;;;;;;;;;;;27.22;38.94;100428.94;5054738;27;96844;-77
2021/08/08 07:50:56;;;;;;;;;;;;;;;27.08;39.12;100446.75;5054051;27;97734;-76
2021/08/08 07:53:23;;;;;;;;;;;;;;;26.49;39.03;100445.88;5054546;27;99019;-78
2021/08/08 07:55:50;;;;;;;;;;;;;;;25.78;40.45;100443.47;5054213;27;96743;-78
2021/08/08 07:58:17;;;;;;;;;;;;;;;26.15;39.66;100445.88;5055175;27;96783;-77
2021/08/08 08:00:44;;;;;;;;;;;;;;;26.45;39.29;100447.22;5054762;27;99294;-77
2021/08/08 08:03:10;;;;;;;;;;;;;;;26.51;39.49;100457.41;5054647;27;99415;-77
2021/08/08 08:05:36;;;;;;;;;;;;;;;26.94;38.44;100459.09;5054318;27;97155;-76
2021/08/08 08:08:03;;;;;;;;;;;;;;;26.10;40.46;100459.06;5055344;27;96957;-76
2021/08/08 08:10:31;;;;;;;;;;;;;;;26.09;38.54;100459.22;5054370;27;99087;-77
2021/08/08 08:12:58;;;;;;;;;;;;;;;25.17;41.37;100469.66;5054351;27;98763;-77
2021/08/08 08:15:27;;;;;;;;;;;;;;;25.66;39.83;100462.84;5052774;27;97475;-76
2021/08/08 08:17:53;;;;;;;;;;;;;;;25.75;40.06;100465.44;5054565;27;96899;-77
2021/08/08 08:20:20;;;;;;;;;;;;;;;24.93;40.87;100470.28;5055466;27;99338;-76
2021/08/08 08:22:46;;;;;;;;;;;;;;;24.80;41.56;100478.72;5056793;27;99233;-78
2021/08/08 08:25:12;;;;;;;;;;;;;;;24.89;41.07;100466.13;5054839;27;97257;-77
2021/08/08 08:27:39;;;;;;;;;;;;;;;24.57;41.82;100472.88;5054514;27;97104;-76
2021/08/08 08:30:05;;;;;;;;;;;;;;;25.35;40.52;100473.19;5053589;27;99406;-77
2021/08/08 08:32:33;;;;;;;;;;;;;;;25.53;39.37;100471.34;5054002;27;97844;-77
2021/08/08 08:35:02;;;;;;;;;;;;;;;25.82;38.88;100473.75;5053857;27;96693;-76
2021/08/08 08:37:28;;;;;;;;;;;;;;;25.71;38.49;100479.44;5054763;27;96795;-75
2021/08/08 08:39:54;;;;;;;;;;;;;;;25.61;38.96;100474.13;5053185;27;99007;-76
2021/08/08 08:42:22;;;;;;;;;;;;;;;24.96;39.49;100483.47;5053514;27;98795;-76
2021/08/08 08:44:48;;;;;;;;;;;;;;;25.24;39.12;100481.56;5053714;27;96731;-77
2021/08/08 08:47:15;;;;;;;;;;;;;;;25.89;38.26;100476.69;5053998;27;96961;-76
2021/08/08 08:49:46;;;;;;;;;;;;;;;26.08;38.04;100477.31;5053727;27;100219;-77
2021/08/08 08:52:13;;;;;;;;;;;;;;;26.75;37.13;100474.75;5053671;27;98978;-77
2021/08/08 08:54:40;;;;;;;;;;;;;;;26.56;37.41;100476.75;5054176;27;96836;-76
2021/08/08 08:57:06;;;;;;;;;;;;;;;26.63;36.50;100474.22;5053903;27;96708;-78
2021/08/08 08:59:33;;;;;;;;;;;;;;;27.53;36.05;100486.13;5054821;27;98909;-80
2021/08/08 09:02:00;;;;;;;;;;;;;;;27.26;36.13;100485.41;5055369;27;100118;-79
2021/08/08 09:04:26;;;;;;;;;;;;;;;26.86;36.95;100488.00;5054543;27;96676;-76
2021/08/08 09:06:54;;;;;;;;;;;;;;;26.44;38.32;100488.03;5055028;27;96813;-76
2021/08/08 09:09:20;;;;;;;;;;;;;;;26.81;36.79;100483.09;5053965;27;98881;-78
2021/08/08 09:11:48;;;;;;;;;;;;;;;27.68;35.91;100490.72;5054241;27;97624;-76
2021/08/08 09:14:15;;;;;;;;;;;;;;;27.88;35.48;100490.34;5055204;27;96920;-75
2021/08/08 09:16:43;;;;;;;;;;;;;;;27.94;35.05;100485.06;5057054;27;97419;-77
2021/08/08 09:19:16;;;;;;;;;;;;;;;28.07;35.01;100484.53;5056926;27;98893;-76
2021/08/08 09:21:43;;;;;;;;;;;;;;;27.66;36.10;100491.88;5057766;27;99254;-76
2021/08/08 09:24:11;;;;;;;;;;;;;;;28.39;34.24;100499.91;5057693;27;96809;-75
2021/08/08 09:26:38;;;;;;;;;;;;;;;28.16;35.24;100499.00;5057113;27;96722;-76
2021/08/08 09:29:06;;;;;;;;;;;;;;;28.00;35.14;100494.38;5055855;27;98884;-76
2021/08/08 09:31:38;;;;;;;;;;;;;;;28.05;35.69;100503.72;5056643;27;97876;-77
2021/08/08 09:34:04;;;;;;;;;;;;;;;28.60;34.19;100511.06;5057205;27;96878;-76
2021/08/08 09:36:39;;;;;;;;;;;;;;;28.42;34.29;100508.56;5057681;27;97418;-76
2021/08/08 09:39:05;;;;;;;;;;;;;;;28.19;34.80;100504.06;5056361;27;97759;-76
2021/08/08 09:41:33;;;;;;;;;;;;;;;29.03;34.34;100509.66;5056357;27;98854;-76
2021/08/08 09:44:05;;;;;;;;;;;;;;;28.69;33.03;100520.00;5056370;27;96902;-75
2021/08/08 09:46:31;;;;;;;;;;;;;;;28.26;32.54;100521.34;5056589;27;96698;-76
2021/08/08 09:49:06;;;;;;;;;;;;;;;27.55;33.39;100533.78;5056817;27;99498;-75
2021/08/08 09:51:32;;;;;;;;;;;;;;;27.63;33.84;100531.09;5056166;27;98822;-75
2021/08/08 09:53:58;;;;;;;;;;;;;;;27.19;35.08;100537.75;5055822;27;96771;-76
2021/08/08 09:56:25;;;;;;;;;;;;;;;27.59;34.49;100529.72;5055654;27;97348;-75
2021/08/08 09:58:52;;;;;;;;;;;;;;;27.61;34.59;100524.13;5055627;27;99360;-75
2021/08/08 10:01:18;;;;;;;;;;;;;;;26.74;35.34;100532.69;5056104;27;98180;-76
2021/08/08 10:03:45;;;;;;;;;;;;;;;26.82;35.47;100532.72;5056305;27;96963;-76
2021/08/08 10:06:14;;;;;;;;;;;;;;;27.00;35.85;100533.50;5055956;27;96915;-76
2021/08/08 10:08:41;;;;;;;;;;;;;;;26.95;35.28;100538.56;5055565;27;99540;-75
2021/08/08 10:11:07;;;;;;;;;;;;;;;27.73;34.78;100539.91;5056395;27;98850;-75
2021/08/08 10:13:44;;;;;;;;;;;;;;;27.58;34.64;100543.44;5056057;27;96660;-76
2021/08/08 10:16:15;;;;;;;;;;;;;;;27.68;34.01;100544.16;5056101;27;96820;-75
2021/08/08 10:18:43;;;;;;;;;;;;;;;28.28;33.44;100541.06;5054893;27;99409;-75
2021/08/08 10:21:10;;;;;;;;;;;;;;;28.43;33.48;100551.03;5055892;27;99196;-76
2021/08/08 10:23:37;;;;;;;;;;;;;;;28.18;33.69;100557.53;5055707;27;97006;-76
2021/08/08 10:26:04;;;;;;;;;;;;;;;28.30;33.39;100560.72;5055510;27;96904;-76
2021/08/08 10:28:30;;;;;;;;;;;;;;;27.76;33.87;100565.88;5055196;27;98926;-76
2021/08/08 10:30:58;;;;;;;;;;;;;;;27.85;34.10;100563.97;5056015;27;98862;-76
2021/08/08 10:33:26;;;;;;;;;;;;;;;27.02;34.37;100569.44;5055939;27;96746;-78
2021/08/08 10:35:52;;;;;;;;;;;;;;;25.85;36.29;100570.03;5056017;27;96864;-76
2021/08/08 10:38:20;;;;;;;;;;;;;;;27.31;34.84;100575.25;5056247;27;98261;-77
2021/08/08 10:40:47;;;;;;;;;;;;;;;27.35;34.36;100575.78;5055442;27;100194;-75
2021/08/08 10:43:22;;;;;;;;;;;;;;;27.19;34.42;100573.03;5055539;27;96804;-75
2021/08/08 10:45:48;;;;;;;;;;;;;;;27.51;33.62;100573.09;5055793;27;96837;-75
2021/08/08 10:48:15;;;;;;;;;;;;;;;27.04;34.17;100572.84;5055948;27;99230;-75
2021/08/08 10:50:44;;;;;;;;;;;;;;;27.25;34.10;100575.06;5062406;27;99503;-76
2021/08/08 10:53:21;;;;;;;;;;;;;;;27.48;34.00;100580.72;5058470;27;96647;-76
2021/08/08 10:55:47;;;;;;;;;;;;;;;27.60;34.06;100574.00;5056241;27;96854;-76
2021/08/08 10:58:15;;;;;;;;;;;;;;;27.81;33.87;100566.19;5055732;27;98407;-76
2021/08/08 11:00:42;;;;;;;;;;;;;;;27.46;34.00;100577.31;5056145;27;98150;-77
2021/08/08 11:03:12;;;;;;;;;;;;;;;26.67;34.47;100570.44;5056294;27;96773;-75
2021/08/08 11:05:38;;;;;;;;;;;;;;;27.33;34.09;100567.81;5055368;27;96786;-76
2021/08/08 11:08:07;;;;;;;;;;;;;;;27.71;33.55;100585.34;5054749;27;99364;-74
2021/08/08 11:10:35;;;;;;;;;;;;;;;27.11;33.69;100576.56;5055368;27;98869;-76
2021/08/08 11:13:02;;;;;;;;;;;;;;;26.75;34.69;100589.44;5055334;27;96701;-76
2021/08/08 11:15:35;;;;;;;;;;;;;;;27.32;33.45;100590.53;5055220;27;96890;-75
2021/08/08 11:18:02;;;;;;;;;;;;;;;27.88;32.62;100602.53;5055259;27;98906;-77
2021/08/08 11:20:28;;;;;;;;;;;;;;;28.07;32.32;100594.03;5055660;27;98075;-77
2021/08/08 11:22:55;;;;;;;;;;;;;;;27.70;33.28;100601.81;5055499;27;96738;-76
2021/08/08 11:25:23;;;;;;;;;;;;;;;27.57;33.26;100598.78;5055495;27;96891;-76
2021/08/08 11:27:53;;;;;;;;;;;;;;;27.46;33.91;100609.88;5054882;27;98946;-76
2021/08/08 11:30:20;;;;;;;;;;;;;;;27.91;32.56;100610.31;5055546;27;99147;-76
2021/08/08 11:32:49;;;;;;;;;;;;;;;28.45;32.45;100614.22;5054939;27;96741;-76
2021/08/08 11:35:16;;;;;;;;;;;;;;;28.01;32.43;100613.72;5055486;27;96805;-75
2021/08/08 11:37:43;;;;;;;;;;;;;;;27.74;33.57;100620.31;5055009;27;99368;-75
2021/08/08 11:40:19;;;;;;;;;;;;;;;27.72;32.90;100613.34;5054052;27;97335;-75
2021/08/08 11:42:47;;;;;;;;;;;;;;;27.97;32.78;100617.78;5055551;27;96765;-76
2021/08/08 11:45:14;;;;;;;;;;;;;;;28.01;32.04;100621.88;5055360;27;97387;-76
2021/08/08 11:47:40;;;;;;;;;;;;;;;28.59;31.67;100609.94;5057203;27;98931;-76
2021/08/08 11:50:07;;;;;;;;;;;;;;;28.25;31.54;100612.88;5060073;27;98854;-76
2021/08/08 11:52:34;;;;;;;;;;;;;;;28.30;31.59;100620.50;5057834;27;96770;-75
2021/08/08 11:55:01;;;;;;;;;;;;;;;28.31;31.01;100616.78;5055677;27;96830;-76
2021/08/08 11:57:29;;;;;;;;;;;;;;;27.87;31.21;100625.25;5054865;27;98923;-75
2021/08/08 11:59:58;;;;;;;;;;;;;;;28.39;30.79;100625.78;5055350;27;104880;-76
2021/08/08 12:02:25;;;;;;;;;;;;;;;27.73;31.63;100632.19;5054893;27;96775;-76
2021/08/08 12:04:53;;;;;;;;;;;;;;;27.98;31.55;100626.78;5054151;27;96772;-77
2021/08/08 12:07:21;;;;;;;;;;;;;;;28.11;31.26;100630.69;5054158;27;97875;-76
2021/08/08 12:09:51;;;;;;;;;;;;;;;28.78;30.69;100625.03;5054298;27;98001;-76
2021/08/08 12:12:18;;;;;;;;;;;;;;;29.47;29.57;100637.00;5055060;27;96953;-76
2021/08/08 12:14:45;;;;;;;;;;;;;;;28.69;29.96;100634.19;5055007;27;97036;-77
2021/08/08 12:17:13;;;;;;;;;;;;;;;28.52;30.44;100636.97;5054488;27;99004;-76
2021/08/08 12:19:40;;;;;;;;;;;;;;;28.54;30.32;100636.78;5054355;27;98934;-76
2021/08/08 12:22:07;;;;;;;;;;;;;;;29.32;29.20;100639.59;5056943;27;97462;-74
2021/08/08 12:24:35;;;;;;;;;;;;;;;29.50;29.07;100633.91;5054822;27;97102;-75
2021/08/08 12:27:01;;;;;;;;;;;;;;;29.38;29.67;100638.91;5054156;27;99173;-75
2021/08/08 12:29:31;;;;;;;;;;;;;;;28.89;28.50;100633.66;5054220;27;99290;-76
2021/08/08 12:32:05;;;;;;;;;;;;;;;29.17;27.36;100636.78;5054124;27;96880;-76
2021/08/08 12:34:32;;;;;;;;;;;;;;;29.55;27.55;100640.50;5054009;27;97093;-77